Time;durP1;ratioP1;P1;durP2;ratioP2;P2;SDS_P1;SDS_P2;PMS_P1;PMS_P2;Temp;Humidity;BMP_temperature;BMP_pressure;BME280_temperature;BME280_humidity;BME280_pressure;Samples;Min_cycle;Max_cycle;Signal;HPM_P1;HPM_P2
2021/08/02 00:00:46;;;;;;;2.87;2.03;;;18.00;99.90;;;;;;5038979;28;20421;-80
2021/08/02 00:03:24;;;;;;;3.57;2.27;;;18.00;99.90;;;;;;5036703;28;20974;-80
2021/08/02 00:05:54;;;;;;;3.97;2.57;;;18.00;99.90;;;;;;5022439;28;20502;-80
2021/08/02 00:08:21;;;;;;;3.70;2.57;;;17.90;99.90;;;;;;5038345;28;20421;-80
2021/08/02 00:10:50;;;;;;;2.77;1.97;;;17.90;99.90;;;;;;5039585;28;20763;-80
2021/08/02 00:13:27;;;;;;;3.87;2.57;;;17.80;99.90;;;;;;5038759;28;20516;-80
2021/08/02 00:16:01;;;;;;;3.10;2.27;;;17.80;99.90;;;;;;5041180;28;20458;-79
2021/08/02 00:18:28;;;;;;;3.30;1.90;;;17.70;99.90;;;;;;5054137;28;20408;-79
2021/08/02 00:20:56;;;;;;;5.30;3.00;;;17.70;99.90;;;;;;5042549;28;20400;-80
2021/08/02 00:23:25;;;;;;;2.93;2.20;;;17.70;99.90;;;;;;5019840;28;20990;-80
2021/08/02 00:25:51;;;;;;;2.57;2.10;;;17.70;99.90;;;;;;5035821;28;20547;-80
2021/08/02 00:28:18;;;;;;;3.10;2.27;;;17.70;99.90;;;;;;5037195;28;20421;-80
2021/08/02 00:30:45;;;;;;;2.93;2.10;;;17.70;99.90;;;;;;5036196;28;20408;-79
2021/08/02 00:33:11;;;;;;;6.63;2.30;;;17.80;99.90;;;;;;5035337;28;20827;-80
2021/08/02 00:36:00;;;;;;;4.60;2.53;;;17.70;99.90;;;;;;5036303;28;20458;-80
2021/08/02 00:38:35;;;;;;;2.10;1.90;;;17.70;99.90;;;;;;5035252;28;20194;-81
2021/08/02 00:41:33;;;;;;;5.00;2.70;;;17.70;99.90;;;;;;5036290;28;20400;-80
2021/08/02 00:44:14;;;;;;;4.53;2.20;;;17.60;99.90;;;;;;5034122;28;20904;-78
2021/08/02 00:46:46;;;;;;;2.17;1.70;;;17.70;99.90;;;;;;5032087;28;20413;-79
2021/08/02 00:49:15;;;;;;;3.27;2.10;;;17.80;99.90;;;;;;5032939;28;20546;-78
2021/08/02 00:51:50;;;;;;;2.60;2.13;;;17.70;99.90;;;;;;5033683;28;20409;-79
2021/08/02 00:54:20;;;;;;;2.37;2.13;;;17.70;99.90;;;;;;5032040;28;20425;-79
2021/08/02 00:56:47;;;;;;;3.67;2.33;;;17.70;99.90;;;;;;5031542;28;20896;-79
2021/08/02 00:59:13;;;;;;;2.67;2.20;;;17.70;99.90;;;;;;5032988;28;20413;-79
2021/08/02 01:01:39;;;;;;;4.00;2.80;;;17.70;99.90;;;;;;5015540;28;20416;-78
2021/08/02 01:04:08;;;;;;;4.90;2.60;;;17.70;99.90;;;;;;5033186;28;20433;-78
2021/08/02 01:06:34;;;;;;;3.40;2.30;;;17.80;99.90;;;;;;5031535;28;20413;-79
2021/08/02 01:09:05;;;;;;;4.47;2.53;;;17.70;99.90;;;;;;5032554;28;20473;-78
2021/08/02 01:11:33;;;;;;;4.73;2.77;;;17.80;99.90;;;;;;5030943;28;20179;-78
2021/08/02 01:14:02;;;;;;;6.40;2.87;;;17.70;99.90;;;;;;5032553;28;20479;-78
2021/08/02 01:16:29;;;;;;;2.73;2.13;;;17.70;99.90;;;;;;5032736;28;20460;-78
2021/08/02 01:18:57;;;;;;;3.20;2.50;;;17.70;99.90;;;;;;4999077;28;20432;-79
2021/08/02 01:21:23;;;;;;;3.27;2.40;;;17.80;99.90;;;;;;5034296;28;20402;-79
2021/08/02 01:23:50;;;;;;;2.90;2.20;;;17.80;99.90;;;;;;5036844;28;20548;-77
2021/08/02 01:26:43;;;;;;;6.33;2.67;;;17.80;99.90;;;;;;5037234;28;20751;-79
2021/08/02 01:29:46;;;;;;;5.60;2.57;;;17.80;99.90;;;;;;5036257;28;20826;-78
2021/08/02 01:32:13;;;;;;;3.23;2.67;;;17.70;99.90;;;;;;5035872;28;20507;-79
2021/08/02 01:34:39;;;;;;;3.50;2.83;;;17.60;99.90;;;;;;5037826;28;20486;-79
2021/08/02 01:37:05;;;;;;;5.93;2.40;;;17.70;99.90;;;;;;5037053;28;20459;-79
2021/08/02 01:39:32;;;;;;;2.00;1.80;;;17.70;99.90;;;;;;5037302;28;20165;-79
2021/08/02 01:41:58;;;;;;;4.17;2.67;;;17.60;99.90;;;;;;5036157;28;20171;-78
2021/08/02 01:44:24;;;;;;;2.87;2.07;;;17.60;99.90;;;;;;5036796;28;20435;-78
2021/08/02 01:47:04;;;;;;;3.57;2.90;;;17.60;99.90;;;;;;5020089;28;20294;-79
2021/08/02 01:49:45;;;;;;;4.07;2.80;;;17.50;99.90;;;;;;5037778;28;20167;-78
2021/08/02 01:52:21;;;;;;;5.93;3.33;;;17.50;99.90;;;;;;5036477;28;20428;-79
2021/08/02 01:54:53;;;;;;;3.60;2.70;;;17.50;99.90;;;;;;5036803;28;20997;-80
2021/08/02 01:57:56;;;;;;;2.90;2.40;;;17.60;99.90;;;;;;5038574;28;20467;-78
2021/08/02 02:00:22;;;;;;;4.63;3.20;;;17.80;99.90;;;;;;5025763;28;20412;-78
2021/08/02 02:03:00;;;;;;;2.70;2.00;;;17.80;99.90;;;;;;5035142;28;20467;-79
2021/08/02 02:05:35;;;;;;;6.40;2.10;;;17.80;99.90;;;;;;5035137;28;20415;-79
2021/08/02 02:08:25;;;;;;;5.77;3.77;;;17.80;99.90;;;;;;5036607;28;20491;-78
2021/08/02 02:10:57;;;;;;;7.00;3.90;;;17.90;99.90;;;;;;5035526;28;20410;-78
2021/08/02 02:13:36;;;;;;;6.00;3.70;;;17.90;99.90;;;;;;5035971;28;20455;-79
2021/08/02 02:16:03;;;;;;;6.00;3.70;;;17.70;99.90;;;;;;5037152;28;20531;-79
2021/08/02 02:18:32;;;;;;;4.63;3.00;;;17.70;99.90;;;;;;5036577;28;20804;-79
2021/08/02 02:20:59;;;;;;;2.53;2.33;;;17.70;99.90;;;;;;5036648;28;20411;-78
2021/08/02 02:23:26;;;;;;;2.57;2.03;;;17.80;99.90;;;;;;5036213;28;20424;-79
2021/08/02 02:25:53;;;;;;;2.50;1.90;;;17.80;99.90;;;;;;5035429;28;20989;-78
2021/08/02 02:28:20;;;;;;;3.50;2.67;;;17.70;99.90;;;;;;5034553;28;20471;-78
2021/08/02 02:30:47;;;;;;;5.27;3.43;;;17.70;99.90;;;;;;5032572;28;20416;-79
2021/08/02 02:33:16;;;;;;;5.20;3.00;;;17.70;99.90;;;;;;5034294;28;20428;-79
2021/08/02 02:35:44;;;;;;;5.40;2.43;;;17.80;99.90;;;;;;5035871;28;20470;-79
2021/08/02 02:38:15;;;;;;;2.90;2.23;;;17.80;99.90;;;;;;5037635;28;20406;-80
2021/08/02 02:40:43;;;;;;;4.33;2.50;;;17.70;99.90;;;;;;5034740;28;20416;-79
2021/08/02 02:43:11;;;;;;;3.50;2.23;;;17.80;99.90;;;;;;5036591;28;20475;-78
2021/08/02 02:45:38;;;;;;;2.53;2.20;;;17.70;99.90;;;;;;5036280;28;20523;-79
2021/08/02 02:48:05;;;;;;;2.93;2.17;;;17.80;99.90;;;;;;5035867;28;20495;-78
2021/08/02 02:50:32;;;;;;;3.73;2.47;;;17.70;99.90;;;;;;5035623;28;20495;-78
2021/08/02 02:53:00;;;;;;;1.90;1.63;;;17.70;99.90;;;;;;5033130;28;20444;-79
2021/08/02 02:55:26;;;;;;;3.53;2.20;;;17.70;99.90;;;;;;5035386;28;20412;-79
2021/08/02 02:57:52;;;;;;;2.93;2.40;;;17.70;99.90;;;;;;5035305;28;20471;-79
2021/08/02 03:00:19;;;;;;;2.90;2.60;;;17.70;99.90;;;;;;5035237;28;20435;-79
2021/08/02 03:02:48;;;;;;;4.30;3.00;;;17.60;99.90;;;;;;5033589;28;20469;-80
2021/08/02 03:05:16;;;;;;;3.30;2.70;;;17.70;99.90;;;;;;5035077;28;20414;-80
2021/08/02 03:07:43;;;;;;;6.63;2.40;;;17.80;99.90;;;;;;5034918;28;20872;-79
2021/08/02 03:10:11;;;;;;;4.40;2.77;;;17.80;99.90;;;;;;5034545;28;20409;-79
2021/08/02 03:12:37;;;;;;;4.10;2.03;;;17.80;99.90;;;;;;5033099;28;20499;-79
2021/08/02 03:15:03;;;;;;;4.20;2.80;;;17.80;99.90;;;;;;5035065;28;20421;-79
2021/08/02 03:17:29;;;;;;;2.80;2.50;;;17.60;99.90;;;;;;5034717;28;20485;-78
2021/08/02 03:19:55;;;;;;;3.40;2.53;;;17.70;99.90;;;;;;5034117;28;20493;-79
2021/08/02 03:22:36;;;;;;;2.50;2.30;;;17.70;99.90;;;;;;5033030;28;20430;-78
2021/08/02 03:25:30;;;;;;;4.33;2.33;;;17.80;99.90;;;;;;5034644;28;20170;-80
2021/08/02 03:28:17;;;;;;;2.30;2.03;;;17.80;99.90;;;;;;5013084;28;20444;-80
2021/08/02 03:30:46;;;;;;;2.80;2.20;;;17.70;99.90;;;;;;5033245;28;20424;-78
2021/08/02 03:33:21;;;;;;;2.47;1.70;;;17.80;99.90;;;;;;5034836;28;20433;-79
2021/08/02 03:35:49;;;;;;;2.97;1.83;;;17.80;99.90;;;;;;5036244;28;20410;-80
2021/08/02 03:38:15;;;;;;;3.60;2.30;;;17.70;99.90;;;;;;5034201;28;20443;-79
2021/08/02 03:40:44;;;;;;;2.57;2.10;;;17.70;99.90;;;;;;5034893;28;20409;-81
2021/08/02 03:43:10;;;;;;;2.83;2.30;;;17.70;99.90;;;;;;5034453;28;20512;-79
2021/08/02 03:45:37;;;;;;;2.40;2.20;;;17.80;99.90;;;;;;5034806;28;20487;-78
2021/08/02 03:48:03;;;;;;;3.50;2.43;;;17.80;99.90;;;;;;5033501;28;20418;-78
2021/08/02 03:50:30;;;;;;;2.40;2.07;;;17.80;99.90;;;;;;5034274;28;20478;-80
2021/08/02 03:52:59;;;;;;;3.50;2.20;;;17.80;99.90;;;;;;5036037;28;20425;-80
2021/08/02 03:55:29;;;;;;;3.23;2.30;;;17.80;99.90;;;;;;5033818;28;20431;-78
2021/08/02 03:57:55;;;;;;;3.83;2.50;;;17.70;99.90;;;;;;5033985;28;20550;-79
2021/08/02 04:00:21;;;;;;;2.60;2.10;;;17.50;99.90;;;;;;5035532;28;20401;-80
2021/08/02 04:02:49;;;;;;;4.20;2.40;;;17.50;99.90;;;;;;5036916;28;20178;-79
2021/08/02 04:05:15;;;;;;;4.17;2.53;;;17.40;99.90;;;;;;5037129;28;20491;-79
2021/08/02 04:07:42;;;;;;;4.13;2.50;;;17.30;99.90;;;;;;5020285;28;20531;-79
2021/08/02 04:10:10;;;;;;;3.53;2.40;;;17.40;99.90;;;;;;5036991;28;20413;-80
2021/08/02 04:12:37;;;;;;;3.73;2.27;;;17.60;99.90;;;;;;5034007;28;20452;-80
2021/08/02 04:15:04;;;;;;;3.07;2.03;;;17.60;99.90;;;;;;5017620;28;20467;-79
2021/08/02 04:17:29;;;;;;;4.80;1.97;;;17.60;99.90;;;;;;5034611;28;20510;-79
2021/08/02 04:19:55;;;;;;;2.60;2.13;;;17.80;99.90;;;;;;5034461;28;20412;-80
2021/08/02 04:22:20;;;;;;;2.20;1.97;;;17.60;99.90;;;;;;5018826;28;20177;-79
2021/08/02 04:24:46;;;;;;;3.73;1.80;;;17.70;99.90;;;;;;5019115;28;20170;-79
2021/08/02 04:27:11;;;;;;;8.13;4.20;;;17.70;99.90;;;;;;5035412;28;20177;-79
2021/08/02 04:29:37;;;;;;;2.63;2.07;;;17.60;99.90;;;;;;5019421;28;20234;-80
2021/08/02 04:32:03;;;;;;;4.97;2.40;;;17.50;99.90;;;;;;5035729;28;20182;-80
2021/08/02 04:34:28;;;;;;;4.20;2.20;;;17.40;99.90;;;;;;5034487;28;20244;-78
2021/08/02 04:36:56;;;;;;;3.90;2.17;;;17.30;99.90;;;;;;5034894;28;20478;-79
2021/08/02 04:39:22;;;;;;;2.37;1.70;;;17.40;99.90;;;;;;5034057;28;20178;-79
2021/08/02 04:41:47;;;;;;;4.00;1.90;;;17.40;99.90;;;;;;5033692;28;20724;-80
2021/08/02 04:44:13;;;;;;;3.97;2.00;;;17.40;99.90;;;;;;5034898;28;20678;-80
2021/08/02 04:46:38;;;;;;;2.80;1.93;;;17.40;99.90;;;;;;5035083;28;20218;-79
2021/08/02 04:49:04;;;;;;;2.77;1.87;;;17.50;99.90;;;;;;5033764;28;20178;-79
2021/08/02 04:51:30;;;;;;;1.57;1.37;;;17.50;99.90;;;;;;5018524;28;20181;-80
2021/08/02 04:53:55;;;;;;;2.43;1.83;;;17.60;99.90;;;;;;5033989;28;20720;-80
2021/08/02 04:56:21;;;;;;;2.17;1.80;;;17.60;99.90;;;;;;5036795;28;20220;-79
2021/08/02 04:58:46;;;;;;;5.03;2.77;;;17.50;99.90;;;;;;5036445;28;20169;-79
2021/08/02 05:01:12;;;;;;;3.50;2.53;;;17.40;99.90;;;;;;5040129;28;20176;-80
2021/08/02 05:03:38;;;;;;;2.07;1.67;;;17.40;99.90;;;;;;5040551;28;20700;-79
2021/08/02 05:06:04;;;;;;;1.90;1.53;;;17.50;99.90;;;;;;5038879;28;20174;-79
2021/08/02 05:08:30;;;;;;;2.67;1.73;;;17.50;99.90;;;;;;5039873;28;20449;-81
2021/08/02 05:10:55;;;;;;;3.03;1.90;;;17.50;99.90;;;;;;5038741;28;20192;-81
2021/08/02 05:13:24;;;;;;;3.00;1.80;;;17.50;99.90;;;;;;5021019;28;20225;-81
2021/08/02 05:15:50;;;;;;;5.43;2.80;;;17.40;99.90;;;;;;5039307;28;20224;-81
2021/08/02 05:18:15;;;;;;;4.60;2.50;;;17.40;99.90;;;;;;5044339;28;20821;-81
2021/08/02 05:20:42;;;;;;;3.00;1.90;;;17.40;99.90;;;;;;5043301;28;20799;-80
2021/08/02 05:23:08;;;;;;;3.60;2.10;;;17.40;99.90;;;;;;5056984;28;20255;-79
2021/08/02 05:25:34;;;;;;;3.13;2.13;;;17.40;99.90;;;;;;5054400;28;20423;-79
2021/08/02 05:27:59;;;;;;;3.47;1.73;;;17.30;99.90;;;;;;5045413;28;20435;-79
2021/08/02 05:30:25;;;;;;;2.10;1.90;;;17.40;99.90;;;;;;5054035;28;20284;-80
2021/08/02 05:32:50;;;;;;;2.60;1.63;;;17.30;99.90;;;;;;5045056;28;20197;-80
2021/08/02 05:35:16;;;;;;;2.10;1.57;;;17.30;99.90;;;;;;5023056;28;20589;-80
2021/08/02 05:37:42;;;;;;;2.80;1.80;;;17.40;99.90;;;;;;5056727;28;20646;-80
2021/08/02 05:40:09;;;;;;;5.00;2.30;;;17.60;99.90;;;;;;5057150;28;20558;-80
2021/08/02 05:42:35;;;;;;;2.17;1.53;;;18.00;99.90;;;;;;5039035;28;20542;-81
2021/08/02 05:45:05;;;;;;;2.13;1.80;;;18.30;99.90;;;;;;5036952;28;20422;-80
2021/08/02 05:47:31;;;;;;;2.17;1.60;;;18.50;99.90;;;;;;5055025;28;20425;-80
2021/08/02 05:49:56;;;;;;;3.03;1.67;;;18.70;99.90;;;;;;5058175;28;20473;-80
2021/08/02 05:52:22;;;;;;;2.87;1.43;;;18.80;99.90;;;;;;5039880;28;20183;-81
2021/08/02 05:54:47;;;;;;;2.70;1.43;;;18.70;99.90;;;;;;5050158;28;20595;-80
2021/08/02 05:57:19;;;;;;;3.93;1.67;;;18.40;99.90;;;;;;5037828;28;20613;-80
2021/08/02 05:59:44;;;;;;;2.97;1.87;;;18.70;99.90;;;;;;5037885;28;20610;-80
2021/08/02 06:02:10;;;;;;;3.03;1.77;;;19.10;99.90;;;;;;5019253;28;20431;-80
2021/08/02 06:04:36;;;;;;;1.80;1.70;;;18.90;99.90;;;;;;5037042;28;20180;-80
2021/08/02 06:07:01;;;;;;;6.40;1.87;;;19.00;99.90;;;;;;5036915;28;20561;-81
2021/08/02 06:09:30;;;;;;;2.07;1.70;;;19.40;99.90;;;;;;5050890;28;20181;-81
2021/08/02 06:11:55;;;;;;;2.43;1.70;;;19.70;99.90;;;;;;5055796;28;20181;-79
2021/08/02 06:14:21;;;;;;;1.47;1.37;;;19.40;99.90;;;;;;5056187;28;20817;-80
2021/08/02 06:16:46;;;;;;;2.80;1.77;;;19.80;99.90;;;;;;5042020;28;20613;-80
2021/08/02 06:19:12;;;;;;;4.20;1.90;;;20.20;99.90;;;;;;5023101;28;20240;-79
2021/08/02 06:21:38;;;;;;;2.50;1.80;;;20.10;99.90;;;;;;5033178;28;20177;-78
2021/08/02 06:24:03;;;;;;;3.23;1.87;;;20.10;99.90;;;;;;5037482;28;20213;-80
2021/08/02 06:26:30;;;;;;;4.83;1.70;;;19.80;99.90;;;;;;5038560;28;20184;-79
2021/08/02 06:28:56;;;;;;;3.40;1.60;;;19.70;99.90;;;;;;5011927;28;20950;-79
2021/08/02 06:31:22;;;;;;;2.70;1.40;;;19.80;99.90;;;;;;5047393;28;20428;-79
2021/08/02 06:33:47;;;;;;;7.13;2.23;;;19.90;99.90;;;;;;5047182;28;20268;-78
2021/08/02 06:36:20;;;;;;;2.50;1.83;;;19.90;99.90;;;;;;5038680;28;20699;-80
2021/08/02 06:38:54;;;;;;;7.20;2.10;;;19.90;99.90;;;;;;5037972;28;20193;-79
2021/08/02 06:41:20;;;;;;;3.27;2.30;;;20.30;99.90;;;;;;5038996;28;20473;-78
2021/08/02 06:43:46;;;;;;;3.73;2.27;;;20.30;99.90;;;;;;5033406;28;20449;-79
2021/08/02 06:46:11;;;;;;;3.47;1.50;;;20.50;99.90;;;;;;5043447;28;20642;-78
2021/08/02 06:48:39;;;;;;;3.57;1.63;;;20.80;99.90;;;;;;5037718;28;20172;-78
2021/08/02 06:51:05;;;;;;;2.73;1.77;;;21.00;99.90;;;;;;5038558;28;20628;-78
2021/08/02 06:53:31;;;;;;;2.70;1.47;;;20.60;99.90;;;;;;5038288;28;20457;-78
2021/08/02 06:55:56;;;;;;;2.00;1.30;;;20.60;99.90;;;;;;5036645;28;20183;-78
2021/08/02 06:58:22;;;;;;;4.03;1.30;;;19.90;99.90;;;;;;5035555;28;20223;-79
2021/08/02 07:00:47;;;;;;;3.80;1.70;;;19.50;99.90;;;;;;5037098;28;20173;-79
2021/08/02 07:03:13;;;;;;;1.77;1.47;;;19.70;99.90;;;;;;5036479;28;20190;-80
2021/08/02 07:05:38;;;;;;;1.93;1.03;;;20.20;99.90;;;;;;5036753;28;20184;-79
2021/08/02 07:08:04;;;;;;;2.10;1.30;;;20.70;99.90;;;;;;5033192;28;20171;-79
2021/08/02 07:10:32;;;;;;;2.43;1.30;;;21.10;99.90;;;;;;5017447;28;20171;-78
2021/08/02 07:13:00;;;;;;;1.60;1.20;;;20.80;99.90;;;;;;5016576;28;20646;-79
2021/08/02 07:15:26;;;;;;;1.27;1.17;;;20.80;99.90;;;;;;5015790;28;20944;-79
2021/08/02 07:17:51;;;;;;;1.50;0.90;;;20.90;99.90;;;;;;5031737;28;20462;-80
2021/08/02 07:20:17;;;;;;;3.27;1.03;;;20.50;99.90;;;;;;5035510;28;20250;-80
2021/08/02 07:22:42;;;;;;;1.43;1.00;;;20.20;99.90;;;;;;5035100;28;20195;-79
2021/08/02 07:25:08;;;;;;;1.30;1.00;;;20.60;99.90;;;;;;5036507;28;20221;-78
2021/08/02 07:27:34;;;;;;;1.97;1.00;;;20.30;99.90;;;;;;5035033;28;20228;-77
2021/08/02 07:30:02;;;;;;;1.80;0.90;;;20.10;99.90;;;;;;5036427;28;20442;-78
2021/08/02 07:32:28;;;;;;;1.37;0.97;;;20.20;99.90;;;;;;5017453;28;20263;-77
2021/08/02 07:34:53;;;;;;;2.00;1.10;;;20.50;99.90;;;;;;5035338;28;20428;-78
2021/08/02 07:37:19;;;;;;;1.60;0.97;;;20.30;99.90;;;;;;5036475;28;20212;-78
2021/08/02 07:39:47;;;;;;;2.63;1.10;;;20.40;99.90;;;;;;5034617;28;20179;-78
2021/08/02 07:42:12;;;;;;;5.90;1.20;;;20.70;99.90;;;;;;5031749;28;20207;-79
2021/08/02 07:44:45;;;;;;;1.07;0.80;;;21.00;99.90;;;;;;5016067;28;20993;-79
2021/08/02 07:47:11;;;;;;;2.60;1.30;;;20.60;99.90;;;;;;4999285;28;20227;-78
2021/08/02 07:49:36;;;;;;;1.33;1.23;;;20.90;99.90;;;;;;5014623;28;20823;-79
2021/08/02 07:52:02;;;;;;;1.83;1.23;;;20.80;99.90;;;;;;4998929;28;20550;-79
2021/08/02 07:54:28;;;;;;;1.30;1.00;;;20.70;99.90;;;;;;5020924;28;20214;-79
2021/08/02 07:56:59;;;;;;;4.30;1.43;;;20.50;99.90;;;;;;5036006;28;20458;-79
2021/08/02 07:59:24;;;;;;;2.97;1.20;;;20.60;99.90;;;;;;5028651;28;20176;-79
2021/08/02 08:01:50;;;;;;;2.70;1.00;;;20.40;99.90;;;;;;5016841;28;20785;-79
2021/08/02 08:04:15;;;;;;;3.73;1.00;;;20.30;99.90;;;;;;5019924;28;20560;-78
2021/08/02 08:06:50;;;;;;;1.50;1.10;;;20.30;99.90;;;;;;5035342;28;20170;-79
2021/08/02 08:09:19;;;;;;;2.03;1.33;;;20.20;99.90;;;;;;5026105;28;20650;-79
2021/08/02 08:11:44;;;;;;;2.60;1.67;;;20.10;99.90;;;;;;5034990;28;20484;-78
2021/08/02 08:14:13;;;;;;;2.17;1.57;;;20.50;99.90;;;;;;5019167;28;20989;-80
2021/08/02 08:16:39;;;;;;;2.00;1.47;;;20.60;99.90;;;;;;5035897;28;20206;-80
2021/08/02 08:19:07;;;;;;;3.20;1.40;;;20.60;99.90;;;;;;5032100;28;20436;-78
2021/08/02 08:21:40;;;;;;;7.80;1.27;;;20.40;99.90;;;;;;5018010;28;20168;-79
2021/08/02 08:24:08;;;;;;;3.87;1.53;;;20.10;99.90;;;;;;5020322;28;20435;-79
2021/08/02 08:26:37;;;;;;;2.03;1.30;;;20.00;99.90;;;;;;5031615;28;20761;-79
2021/08/02 08:29:05;;;;;;;1.40;1.10;;;19.90;99.90;;;;;;5014678;28;21022;-78
2021/08/02 08:31:54;;;;;;;1.20;0.93;;;19.80;99.90;;;;;;5031600;28;20431;-80
2021/08/02 08:34:25;;;;;;;2.30;1.30;;;20.10;99.90;;;;;;5003249;28;20518;-81
2021/08/02 08:36:50;;;;;;;1.73;1.63;;;20.10;99.90;;;;;;5016856;28;20461;-85
2021/08/02 08:39:35;;;;;;;1.70;1.00;;;20.40;99.90;;;;;;5014913;28;20932;-81
2021/08/02 08:42:10;;;;;;;2.50;1.10;;;20.20;99.90;;;;;;5016555;28;20242;-80
2021/08/02 08:44:43;;;;;;;3.47;0.87;;;20.00;99.90;;;;;;5015799;28;20447;-82
2021/08/02 08:47:16;;;;;;;3.20;0.97;;;19.90;99.90;;;;;;5031546;28;20418;-79
2021/08/02 08:49:42;;;;;;;1.20;0.70;;;20.00;99.90;;;;;;5016628;28;20409;-79
2021/08/02 08:52:08;;;;;;;1.67;0.80;;;20.10;99.90;;;;;;5015140;28;20525;-79
2021/08/02 08:54:36;;;;;;;1.37;1.10;;;20.30;99.90;;;;;;5015272;28;20190;-81
2021/08/02 08:57:03;;;;;;;1.50;0.80;;;20.70;99.90;;;;;;5015979;28;20533;-79
2021/08/02 08:59:29;;;;;;;1.13;0.83;;;21.00;99.90;;;;;;5015749;28;20426;-79
2021/08/02 09:02:02;;;;;;;1.50;0.70;;;20.90;99.90;;;;;;5016525;28;20545;-81
2021/08/02 09:04:29;;;;;;;1.13;0.63;;;20.70;99.90;;;;;;5018046;28;20427;-79
2021/08/02 09:07:07;;;;;;;1.10;0.73;;;20.70;99.90;;;;;;5022597;28;20831;-78
2021/08/02 09:09:35;;;;;;;1.20;1.00;;;20.80;99.90;;;;;;5023825;28;20485;-79
2021/08/02 09:12:08;;;;;;;1.10;0.87;;;20.80;99.90;;;;;;5032993;28;20430;-79
2021/08/02 09:14:37;;;;;;;1.77;1.00;;;20.80;99.90;;;;;;5035259;28;20412;-80
2021/08/02 09:17:03;;;;;;;2.00;1.10;;;20.80;99.90;;;;;;5036261;28;20468;-79
2021/08/02 09:19:41;;;;;;;2.70;1.13;;;20.70;99.90;;;;;;5034597;28;20402;-80
2021/08/02 09:22:11;;;;;;;1.87;1.20;;;20.50;99.90;;;;;;5036445;28;20189;-79
2021/08/02 09:24:37;;;;;;;1.87;1.00;;;20.20;99.90;;;;;;5034767;28;20857;-78
2021/08/02 09:27:03;;;;;;;2.70;0.90;;;20.20;99.90;;;;;;5036506;28;20413;-79
2021/08/02 09:29:30;;;;;;;2.53;1.20;;;20.10;99.90;;;;;;5036643;28;20186;-79
2021/08/02 09:31:56;;;;;;;1.83;0.80;;;20.10;99.90;;;;;;5034829;28;20814;-80
2021/08/02 09:34:24;;;;;;;1.87;1.00;;;20.30;99.90;;;;;;5032816;28;20436;-78
2021/08/02 09:37:04;;;;;;;1.20;1.03;;;20.30;99.90;;;;;;5033160;28;20523;-78
2021/08/02 09:39:31;;;;;;;1.40;0.90;;;20.50;99.90;;;;;;5033147;28;20433;-78
2021/08/02 09:42:02;;;;;;;4.33;1.10;;;20.50;99.90;;;;;;5033687;28;20414;-77
2021/08/02 09:44:35;;;;;;;1.40;0.90;;;20.70;99.90;;;;;;5040316;28;20850;-78
2021/08/02 09:47:07;;;;;;;1.30;0.90;;;21.10;99.90;;;;;;5038184;28;20419;-78
2021/08/02 09:49:55;;;;;;;2.13;0.93;;;21.00;99.90;;;;;;5038715;28;20911;-78
2021/08/02 09:52:21;;;;;;;1.93;1.07;;;20.90;99.90;;;;;;5037752;28;20414;-80
2021/08/02 09:54:56;;;;;;;1.10;0.90;;;21.00;99.90;;;;;;5040535;28;20446;-79
2021/08/02 09:57:22;;;;;;;1.77;0.90;;;20.80;99.90;;;;;;5020954;28;20477;-80
2021/08/02 09:59:47;;;;;;;1.63;1.13;;;20.70;99.90;;;;;;5039986;28;20902;-79
2021/08/02 10:02:13;;;;;;;2.03;1.13;;;20.80;99.90;;;;;;5039019;28;20191;-79
2021/08/02 10:04:41;;;;;;;2.50;1.10;;;20.90;99.90;;;;;;5038419;28;20237;-79
2021/08/02 10:07:09;;;;;;;2.03;1.10;;;20.90;99.90;;;;;;5038558;28;20188;-79
2021/08/02 10:09:39;;;;;;;1.10;0.80;;;20.80;99.90;;;;;;5024306;28;20432;-79
2021/08/02 10:12:07;;;;;;;3.43;1.23;;;20.70;99.90;;;;;;5033287;28;20427;-80
2021/08/02 10:14:33;;;;;;;1.60;1.00;;;20.70;99.90;;;;;;5036395;28;20495;-79
2021/08/02 10:17:08;;;;;;;2.40;1.33;;;20.90;99.90;;;;;;5037143;28;20465;-79
2021/08/02 10:19:53;;;;;;;1.53;0.90;;;21.00;99.90;;;;;;5037587;28;20413;-79
2021/08/02 10:22:19;;;;;;;2.80;1.77;;;20.90;99.90;;;;;;5036122;28;20422;-80
2021/08/02 10:24:51;;;;;;;1.83;0.90;;;21.10;99.90;;;;;;5038303;28;20510;-80
2021/08/02 10:27:28;;;;;;;1.57;1.10;;;21.00;99.90;;;;;;5037320;28;20422;-79
2021/08/02 10:29:56;;;;;;;1.87;1.10;;;20.80;99.90;;;;;;5035519;28;20422;-80
2021/08/02 10:32:29;;;;;;;5.43;1.30;;;20.80;99.90;;;;;;5036104;28;20905;-79
2021/08/02 10:34:57;;;;;;;1.20;0.73;;;21.00;99.90;;;;;;5037306;28;20530;-80
2021/08/02 10:37:34;;;;;;;3.57;0.90;;;21.20;99.90;;;;;;5035631;28;20471;-79
2021/08/02 10:40:08;;;;;;;1.60;1.10;;;21.30;99.90;;;;;;5035057;28;20411;-80
2021/08/02 10:42:49;;;;;;;2.20;1.00;;;21.00;99.90;;;;;;5034929;28;20795;-80
2021/08/02 10:45:27;;;;;;;1.30;0.67;;;21.10;99.90;;;;;;5035041;28;20420;-80
2021/08/02 10:47:52;;;;;;;2.77;0.90;;;21.30;99.90;;;;;;5035537;28;20423;-81
2021/08/02 10:50:26;;;;;;;2.17;0.87;;;21.10;99.90;;;;;;5034836;28;20424;-80
2021/08/02 10:52:54;;;;;;;1.47;0.80;;;21.30;99.90;;;;;;5034502;28;20201;-80
2021/08/02 10:55:20;;;;;;;1.77;0.70;;;21.40;99.90;;;;;;5020401;28;20423;-79
2021/08/02 10:57:59;;;;;;;2.53;0.97;;;21.50;99.90;;;;;;5037633;28;20471;-81
2021/08/02 11:00:25;;;;;;;1.50;1.20;;;21.60;99.90;;;;;;5038094;28;20177;-81
2021/08/02 11:02:55;;;;;;;1.30;1.00;;;21.60;99.90;;;;;;5040773;28;20446;-80
2021/08/02 11:05:22;;;;;;;1.30;0.90;;;21.50;99.90;;;;;;5037726;28;20423;-80
2021/08/02 11:07:48;;;;;;;1.30;0.90;;;21.40;99.90;;;;;;5038936;28;20957;-81
2021/08/02 11:10:20;;;;;;;1.37;0.90;;;21.60;99.90;;;;;;5039045;28;20408;-78
2021/08/02 11:12:47;;;;;;;2.10;1.07;;;21.60;99.90;;;;;;5043189;28;20213;-81
2021/08/02 11:15:13;;;;;;;1.13;1.00;;;21.70;99.90;;;;;;5036347;28;20413;-79
2021/08/02 11:17:50;;;;;;;1.10;0.90;;;21.70;99.90;;;;;;5018913;28;20535;-80
2021/08/02 11:20:16;;;;;;;2.07;1.00;;;21.80;99.90;;;;;;5018603;28;20942;-81
2021/08/02 11:22:49;;;;;;;1.50;0.90;;;21.80;99.90;;;;;;5035470;28;20444;-81
2021/08/02 11:25:25;;;;;;;1.10;0.77;;;21.90;99.90;;;;;;5035149;28;20473;-80
2021/08/02 11:27:56;;;;;;;1.30;1.00;;;21.70;99.90;;;;;;5035051;28;20416;-81
2021/08/02 11:30:26;;;;;;;0.90;0.60;;;21.60;99.90;;;;;;5033561;28;20521;-80
2021/08/02 11:32:52;;;;;;;3.53;1.60;;;21.40;99.90;;;;;;5034437;28;20954;-80
2021/08/02 11:35:29;;;;;;;2.60;1.17;;;21.10;99.90;;;;;;5035800;28;20463;-80
2021/08/02 11:37:58;;;;;;;1.53;1.00;;;21.20;99.90;;;;;;5035491;28;20464;-80
2021/08/02 11:40:34;;;;;;;1.73;1.13;;;21.00;99.90;;;;;;5034726;28;20937;-80
2021/08/02 11:43:03;;;;;;;1.27;0.77;;;21.00;99.90;;;;;;5034989;28;20431;-80
2021/08/02 11:45:32;;;;;;;1.20;0.73;;;21.20;99.90;;;;;;5018446;28;20423;-81
2021/08/02 11:48:06;;;;;;;3.20;1.07;;;21.30;99.90;;;;;;5033926;28;20432;-81
2021/08/02 11:50:32;;;;;;;1.50;1.27;;;21.50;99.90;;;;;;5034305;28;20463;-80
2021/08/02 11:53:04;;;;;;;4.47;1.00;;;21.60;99.90;;;;;;5033378;28;20494;-80
2021/08/02 11:55:30;;;;;;;1.10;0.87;;;21.60;99.90;;;;;;5033992;28;20172;-81
2021/08/02 11:57:59;;;;;;;1.17;0.70;;;21.60;99.90;;;;;;5039729;28;20490;-80
2021/08/02 12:00:25;;;;;;;1.40;0.90;;;21.80;99.90;;;;;;5035723;28;20911;-80
2021/08/02 12:02:51;;;;;;;1.50;1.00;;;21.70;99.90;;;;;;5039644;28;20570;-80
2021/08/02 12:05:26;;;;;;;1.20;0.70;;;21.80;99.90;;;;;;5051786;28;20512;-81
2021/08/02 12:07:53;;;;;;;4.10;1.20;;;22.00;99.90;;;;;;5015033;28;20660;-81
2021/08/02 12:10:25;;;;;;;2.87;0.90;;;22.00;99.90;;;;;;5018999;28;20423;-80
2021/08/02 12:13:00;;;;;;;1.30;0.80;;;21.90;99.90;;;;;;5036834;28;20460;-79
2021/08/02 12:15:27;;;;;;;1.20;0.93;;;22.00;98.60;;;;;;5031122;28;20430;-79
2021/08/02 12:17:54;;;;;;;1.00;0.70;;;22.10;99.90;;;;;;5052028;28;20463;-79
2021/08/02 12:20:43;;;;;;;2.87;0.83;;;22.20;99.30;;;;;;5052341;28;20841;-79
2021/08/02 12:23:09;;;;;;;1.37;0.83;;;22.30;98.60;;;;;;5051415;28;20439;-79
2021/08/02 12:25:46;;;;;;;2.33;1.10;;;22.10;97.00;;;;;;5055920;28;20459;-80
2021/08/02 12:28:13;;;;;;;1.30;0.87;;;22.10;97.20;;;;;;5054214;28;20439;-80
2021/08/02 12:30:40;;;;;;;1.30;0.80;;;22.30;96.00;;;;;;5054583;28;20392;-79
2021/08/02 12:33:08;;;;;;;3.17;1.07;;;22.40;96.80;;;;;;5053443;28;20541;-80
2021/08/02 12:35:34;;;;;;;1.37;0.93;;;22.30;96.80;;;;;;5053375;28;20419;-78
2021/08/02 12:38:01;;;;;;;2.10;1.07;;;22.30;95.50;;;;;;5050673;28;20491;-79
2021/08/02 12:40:28;;;;;;;2.23;1.23;;;22.30;95.80;;;;;;5054115;28;20173;-80
2021/08/02 12:42:56;;;;;;;1.47;0.67;;;22.40;98.50;;;;;;5053076;28;20447;-79
2021/08/02 12:45:22;;;;;;;1.47;1.03;;;22.30;96.80;;;;;;5052703;28;20408;-79
2021/08/02 12:47:51;;;;;;;2.50;1.90;;;22.30;95.20;;;;;;5050827;28;20450;-81
2021/08/02 12:50:22;;;;;;;1.30;0.80;;;22.20;94.40;;;;;;5042192;28;20178;-81
2021/08/02 12:52:49;;;;;;;2.73;1.00;;;22.20;94.40;;;;;;5008223;28;20444;-80
2021/08/02 12:55:16;;;;;;;1.50;1.00;;;22.40;94.60;;;;;;5037196;28;20927;-79
2021/08/02 12:57:42;;;;;;;1.40;0.90;;;22.50;93.40;;;;;;5039199;28;20519;-79